sensor_id;sensor_type;location;lat;lon;timestamp;P1;durP1;ratioP1;P2;durP2;ratioP2
3491;SDS011;1760;52.480;13.422;2023-08-24T00:00:21;7.10;;;4.67;;
3491;SDS011;1760;52.480;13.422;2023-08-24T00:02:48;6.97;;;4.67;;
3491;SDS011;1760;52.480;13.422;2023-08-24T00:05:15;9.97;;;5.10;;
3491;SDS011;1760;52.480;13.422;2023-08-24T00:07:42;6.30;;;5.03;;
3491;SDS011;1760;52.480;13.422;2023-08-24T00:10:10;5.80;;;3.97;;
3491;SDS011;1760;52.480;13.422;2023-08-24T00:12:37;5.17;;;4.33;;
3491;SDS011;1760;52.480;13.422;2023-08-24T00:15:04;4.37;;;3.97;;
3491;SDS011;1760;52.480;13.422;2023-08-24T00:17:35;5.90;;;4.10;;
3491;SDS011;1760;52.480;13.422;2023-08-24T00:20:04;4.83;;;4.10;;
3491;SDS011;1760;52.480;13.422;2023-08-24T00:22:37;8.20;;;4.10;;
3491;SDS011;1760;52.480;13.422;2023-08-24T00:25:05;12.90;;;4.40;;
3491;SDS011;1760;52.480;13.422;2023-08-24T00:27:34;6.70;;;4.00;;
3491;SDS011;1760;52.480;13.422;2023-08-24T00:30:02;6.50;;;3.97;;
3491;SDS011;1760;52.480;13.422;2023-08-24T00:32:31;3.90;;;3.20;;
3491;SDS011;1760;52.480;13.422;2023-08-24T00:34:59;5.50;;;4.33;;
3491;SDS011;1760;52.480;13.422;2023-08-24T00:37:26;5.20;;;3.43;;
3491;SDS011;1760;52.480;13.422;2023-08-24T00:39:53;10.80;;;4.57;;
3491;SDS011;1760;52.480;13.422;2023-08-24T00:42:20;5.73;;;3.70;;
3491;SDS011;1760;52.480;13.422;2023-08-24T00:44:49;4.53;;;3.40;;
3491;SDS011;1760;52.480;13.422;2023-08-24T00:47:16;6.47;;;4.00;;
3491;SDS011;1760;52.480;13.422;2023-08-24T00:49:43;6.83;;;4.40;;
3491;SDS011;1760;52.480;13.422;2023-08-24T00:52:10;4.67;;;4.27;;
3491;SDS011;1760;52.480;13.422;2023-08-24T00:54:38;5.90;;;4.33;;
3491;SDS011;1760;52.480;13.422;2023-08-24T00:57:07;5.20;;;4.23;;
3491;SDS011;1760;52.480;13.422;2023-08-24T00:59:34;7.23;;;4.60;;
3491;SDS011;1760;52.480;13.422;2023-08-24T01:02:03;6.27;;;4.30;;
3491;SDS011;1760;52.480;13.422;2023-08-24T01:04:29;6.00;;;4.20;;
3491;SDS011;1760;52.480;13.422;2023-08-24T01:06:56;8.17;;;4.70;;
3491;SDS011;1760;52.480;13.422;2023-08-24T01:09:23;7.50;;;4.20;;
3491;SDS011;1760;52.480;13.422;2023-08-24T01:11:53;5.33;;;4.17;;
3491;SDS011;1760;52.480;13.422;2023-08-24T01:14:29;9.17;;;4.87;;
3491;SDS011;1760;52.480;13.422;2023-08-24T01:17:04;5.43;;;3.80;;
3491;SDS011;1760;52.480;13.422;2023-08-24T01:19:37;6.43;;;3.87;;
3491;SDS011;1760;52.480;13.422;2023-08-24T01:22:07;5.30;;;3.87;;
3491;SDS011;1760;52.480;13.422;2023-08-24T01:24:47;6.73;;;3.90;;
3491;SDS011;1760;52.480;13.422;2023-08-24T01:27:20;5.40;;;4.13;;
3491;SDS011;1760;52.480;13.422;2023-08-24T01:29:47;11.23;;;3.73;;
3491;SDS011;1760;52.480;13.422;2023-08-24T01:32:17;5.13;;;4.20;;
3491;SDS011;1760;52.480;13.422;2023-08-24T01:34:44;6.33;;;3.70;;
3491;SDS011;1760;52.480;13.422;2023-08-24T01:37:11;4.87;;;4.00;;
3491;SDS011;1760;52.480;13.422;2023-08-24T01:39:40;4.97;;;4.07;;
3491;SDS011;1760;52.480;13.422;2023-08-24T01:42:14;7.03;;;3.93;;
3491;SDS011;1760;52.480;13.422;2023-08-24T01:44:47;5.70;;;3.70;;
3491;SDS011;1760;52.480;13.422;2023-08-24T01:47:16;4.87;;;3.60;;
3491;SDS011;1760;52.480;13.422;2023-08-24T01:49:44;6.60;;;3.93;;
3491;SDS011;1760;52.480;13.422;2023-08-24T01:52:11;4.80;;;4.23;;
3491;SDS011;1760;52.480;13.422;2023-08-24T01:54:40;6.13;;;4.03;;
3491;SDS011;1760;52.480;13.422;2023-08-24T01:57:07;5.30;;;4.80;;
3491;SDS011;1760;52.480;13.422;2023-08-24T01:59:33;7.60;;;3.83;;
3491;SDS011;1760;52.480;13.422;2023-08-24T02:02:02;4.50;;;3.57;;
3491;SDS011;1760;52.480;13.422;2023-08-24T02:04:29;4.23;;;3.83;;
3491;SDS011;1760;52.480;13.422;2023-08-24T02:06:55;6.17;;;4.93;;
3491;SDS011;1760;52.480;13.422;2023-08-24T02:09:22;5.10;;;4.43;;
3491;SDS011;1760;52.480;13.422;2023-08-24T02:11:49;7.03;;;4.40;;
3491;SDS011;1760;52.480;13.422;2023-08-24T02:14:16;12.10;;;6.27;;
3491;SDS011;1760;52.480;13.422;2023-08-24T02:16:43;12.50;;;6.00;;
3491;SDS011;1760;52.480;13.422;2023-08-24T02:19:12;11.13;;;5.30;;
3491;SDS011;1760;52.480;13.422;2023-08-24T02:21:39;6.30;;;5.33;;
3491;SDS011;1760;52.480;13.422;2023-08-24T02:24:06;7.80;;;5.60;;
3491;SDS011;1760;52.480;13.422;2023-08-24T02:26:33;9.57;;;7.67;;
3491;SDS011;1760;52.480;13.422;2023-08-24T02:29:00;13.07;;;7.47;;
3491;SDS011;1760;52.480;13.422;2023-08-24T02:31:27;8.73;;;6.87;;
3491;SDS011;1760;52.480;13.422;2023-08-24T02:33:53;6.47;;;5.07;;
3491;SDS011;1760;52.480;13.422;2023-08-24T02:36:22;8.10;;;6.10;;
3491;SDS011;1760;52.480;13.422;2023-08-24T02:38:49;10.30;;;6.37;;
3491;SDS011;1760;52.480;13.422;2023-08-24T02:41:15;7.20;;;6.43;;
3491;SDS011;1760;52.480;13.422;2023-08-24T02:43:42;8.30;;;6.27;;
3491;SDS011;1760;52.480;13.422;2023-08-24T02:46:09;6.70;;;6.03;;
3491;SDS011;1760;52.480;13.422;2023-08-24T02:48:36;8.40;;;7.57;;
3491;SDS011;1760;52.480;13.422;2023-08-24T02:51:04;9.70;;;8.10;;
3491;SDS011;1760;52.480;13.422;2023-08-24T02:53:32;10.07;;;7.03;;
3491;SDS011;1760;52.480;13.422;2023-08-24T02:55:59;8.80;;;7.20;;
3491;SDS011;1760;52.480;13.422;2023-08-24T02:58:26;9.70;;;7.13;;
3491;SDS011;1760;52.480;13.422;2023-08-24T03:00:53;11.13;;;6.90;;
3491;SDS011;1760;52.480;13.422;2023-08-24T03:03:20;8.70;;;7.80;;
3491;SDS011;1760;52.480;13.422;2023-08-24T03:05:53;8.40;;;6.63;;
3491;SDS011;1760;52.480;13.422;2023-08-24T03:08:21;9.83;;;7.03;;
3491;SDS011;1760;52.480;13.422;2023-08-24T03:10:49;8.17;;;7.20;;
3491;SDS011;1760;52.480;13.422;2023-08-24T03:13:16;8.40;;;7.30;;
3491;SDS011;1760;52.480;13.422;2023-08-24T03:15:46;8.27;;;6.83;;
3491;SDS011;1760;52.480;13.422;2023-08-24T03:18:13;8.67;;;6.90;;
3491;SDS011;1760;52.480;13.422;2023-08-24T03:20:41;9.60;;;6.57;;
3491;SDS011;1760;52.480;13.422;2023-08-24T03:23:08;7.20;;;6.40;;
3491;SDS011;1760;52.480;13.422;2023-08-24T03:25:35;8.90;;;6.00;;
3491;SDS011;1760;52.480;13.422;2023-08-24T03:28:07;6.73;;;6.07;;
3491;SDS011;1760;52.480;13.422;2023-08-24T03:30:35;5.83;;;5.33;;
3491;SDS011;1760;52.480;13.422;2023-08-24T03:33:04;7.67;;;5.80;;
3491;SDS011;1760;52.480;13.422;2023-08-24T03:35:31;7.10;;;6.10;;
3491;SDS011;1760;52.480;13.422;2023-08-24T03:37:59;6.37;;;5.10;;
3491;SDS011;1760;52.480;13.422;2023-08-24T03:40:28;7.47;;;5.07;;
3491;SDS011;1760;52.480;13.422;2023-08-24T03:42:55;7.23;;;6.50;;
3491;SDS011;1760;52.480;13.422;2023-08-24T03:45:23;6.73;;;5.37;;
3491;SDS011;1760;52.480;13.422;2023-08-24T03:47:50;5.87;;;5.13;;
3491;SDS011;1760;52.480;13.422;2023-08-24T03:50:17;8.40;;;4.97;;
3491;SDS011;1760;52.480;13.422;2023-08-24T03:52:44;9.20;;;5.00;;
3491;SDS011;1760;52.480;13.422;2023-08-24T03:55:11;5.37;;;4.87;;
3491;SDS011;1760;52.480;13.422;2023-08-24T03:57:38;6.40;;;4.53;;
3491;SDS011;1760;52.480;13.422;2023-08-24T04:00:05;6.10;;;5.50;;
3491;SDS011;1760;52.480;13.422;2023-08-24T04:02:38;5.50;;;5.00;;
3491;SDS011;1760;52.480;13.422;2023-08-24T04:05:05;7.10;;;5.57;;
3491;SDS011;1760;52.480;13.422;2023-08-24T04:07:32;6.73;;;5.37;;
3491;SDS011;1760;52.480;13.422;2023-08-24T04:10:01;5.30;;;4.87;;
3491;SDS011;1760;52.480;13.422;2023-08-24T04:12:29;6.93;;;5.33;;
3491;SDS011;1760;52.480;13.422;2023-08-24T04:14:56;6.13;;;4.90;;
3491;SDS011;1760;52.480;13.422;2023-08-24T04:17:23;9.73;;;5.20;;
3491;SDS011;1760;52.480;13.422;2023-08-24T04:19:52;7.30;;;5.23;;
3491;SDS011;1760;52.480;13.422;2023-08-24T04:22:19;6.80;;;6.10;;
3491;SDS011;1760;52.480;13.422;2023-08-24T04:24:46;6.53;;;4.40;;
3491;SDS011;1760;52.480;13.422;2023-08-24T04:27:14;5.90;;;4.90;;
3491;SDS011;1760;52.480;13.422;2023-08-24T04:29:40;6.43;;;5.13;;
3491;SDS011;1760;52.480;13.422;2023-08-24T04:32:07;5.57;;;4.87;;
3491;SDS011;1760;52.480;13.422;2023-08-24T04:34:34;8.40;;;6.40;;
3491;SDS011;1760;52.480;13.422;2023-08-24T04:37:06;5.80;;;5.20;;
3491;SDS011;1760;52.480;13.422;2023-08-24T04:39:33;8.87;;;4.63;;
3491;SDS011;1760;52.480;13.422;2023-08-24T04:42:03;8.93;;;5.60;;
3491;SDS011;1760;52.480;13.422;2023-08-24T04:44:31;5.07;;;4.57;;
3491;SDS011;1760;52.480;13.422;2023-08-24T04:46:58;6.47;;;5.00;;
3491;SDS011;1760;52.480;13.422;2023-08-24T04:49:24;5.83;;;4.60;;
3491;SDS011;1760;52.480;13.422;2023-08-24T04:51:51;8.33;;;5.17;;
3491;SDS011;1760;52.480;13.422;2023-08-24T04:54:20;7.33;;;5.50;;
3491;SDS011;1760;52.480;13.422;2023-08-24T04:56:46;5.50;;;4.90;;
3491;SDS011;1760;52.480;13.422;2023-08-24T04:59:13;6.40;;;5.73;;
3491;SDS011;1760;52.480;13.422;2023-08-24T05:01:40;6.20;;;5.60;;
3491;SDS011;1760;52.480;13.422;2023-08-24T05:04:07;6.00;;;5.27;;
3491;SDS011;1760;52.480;13.422;2023-08-24T05:06:34;7.30;;;4.90;;
3491;SDS011;1760;52.480;13.422;2023-08-24T05:09:04;5.40;;;4.30;;
3491;SDS011;1760;52.480;13.422;2023-08-24T05:11:32;7.20;;;5.77;;
3491;SDS011;1760;52.480;13.422;2023-08-24T05:13:59;5.47;;;4.93;;
3491;SDS011;1760;52.480;13.422;2023-08-24T05:16:26;7.63;;;5.67;;
3491;SDS011;1760;52.480;13.422;2023-08-24T05:18:54;7.03;;;5.07;;
3491;SDS011;1760;52.480;13.422;2023-08-24T05:21:21;6.80;;;4.17;;
3491;SDS011;1760;52.480;13.422;2023-08-24T05:23:47;6.87;;;5.67;;
3491;SDS011;1760;52.480;13.422;2023-08-24T05:26:14;5.17;;;4.67;;
3491;SDS011;1760;52.480;13.422;2023-08-24T05:28:48;8.90;;;4.90;;
3491;SDS011;1760;52.480;13.422;2023-08-24T05:31:15;7.37;;;5.20;;
3491;SDS011;1760;52.480;13.422;2023-08-24T05:33:42;9.17;;;4.83;;
3491;SDS011;1760;52.480;13.422;2023-08-24T05:36:10;5.60;;;5.10;;
3491;SDS011;1760;52.480;13.422;2023-08-24T05:38:37;4.77;;;4.07;;
3491;SDS011;1760;52.480;13.422;2023-08-24T05:41:09;7.63;;;4.83;;
3491;SDS011;1760;52.480;13.422;2023-08-24T05:43:36;5.87;;;3.80;;
3491;SDS011;1760;52.480;13.422;2023-08-24T05:46:04;8.83;;;4.47;;
3491;SDS011;1760;52.480;13.422;2023-08-24T05:48:31;5.67;;;4.30;;
3491;SDS011;1760;52.480;13.422;2023-08-24T05:50:58;6.10;;;5.13;;
3491;SDS011;1760;52.480;13.422;2023-08-24T05:53:25;6.60;;;4.50;;
3491;SDS011;1760;52.480;13.422;2023-08-24T05:55:56;5.40;;;4.07;;
3491;SDS011;1760;52.480;13.422;2023-08-24T05:58:23;7.43;;;4.80;;
3491;SDS011;1760;52.480;13.422;2023-08-24T06:00:55;10.97;;;4.77;;
3491;SDS011;1760;52.480;13.422;2023-08-24T06:03:24;5.50;;;4.73;;
3491;SDS011;1760;52.480;13.422;2023-08-24T06:05:51;6.03;;;4.40;;
3491;SDS011;1760;52.480;13.422;2023-08-24T06:08:18;4.40;;;3.80;;
3491;SDS011;1760;52.480;13.422;2023-08-24T06:10:45;4.70;;;4.30;;
3491;SDS011;1760;52.480;13.422;2023-08-24T06:13:12;7.60;;;5.23;;
3491;SDS011;1760;52.480;13.422;2023-08-24T06:15:39;4.53;;;4.10;;
3491;SDS011;1760;52.480;13.422;2023-08-24T06:18:06;6.10;;;4.60;;
3491;SDS011;1760;52.480;13.422;2023-08-24T06:20:34;4.03;;;3.60;;
3491;SDS011;1760;52.480;13.422;2023-08-24T06:23:02;6.43;;;4.53;;
3491;SDS011;1760;52.480;13.422;2023-08-24T06:25:29;6.03;;;3.27;;
3491;SDS011;1760;52.480;13.422;2023-08-24T06:27:57;10.47;;;4.00;;
3491;SDS011;1760;52.480;13.422;2023-08-24T06:30:24;3.87;;;3.57;;
3491;SDS011;1760;52.480;13.422;2023-08-24T06:32:51;3.57;;;3.20;;
3491;SDS011;1760;52.480;13.422;2023-08-24T06:35:21;4.17;;;3.53;;
3491;SDS011;1760;52.480;13.422;2023-08-24T06:37:50;7.00;;;3.60;;
3491;SDS011;1760;52.480;13.422;2023-08-24T06:40:17;3.80;;;3.40;;
3491;SDS011;1760;52.480;13.422;2023-08-24T06:42:44;5.20;;;4.00;;
3491;SDS011;1760;52.480;13.422;2023-08-24T06:45:10;3.10;;;2.63;;
3491;SDS011;1760;52.480;13.422;2023-08-24T06:47:39;8.50;;;3.80;;
3491;SDS011;1760;52.480;13.422;2023-08-24T06:50:06;5.03;;;3.40;;
3491;SDS011;1760;52.480;13.422;2023-08-24T06:52:33;5.10;;;3.53;;
3491;SDS011;1760;52.480;13.422;2023-08-24T06:55:01;3.60;;;3.30;;
3491;SDS011;1760;52.480;13.422;2023-08-24T06:57:29;4.43;;;3.97;;
3491;SDS011;1760;52.480;13.422;2023-08-24T06:59:57;4.23;;;3.00;;
3491;SDS011;1760;52.480;13.422;2023-08-24T07:02:25;4.00;;;3.70;;
3491;SDS011;1760;52.480;13.422;2023-08-24T07:04:52;4.50;;;3.10;;
3491;SDS011;1760;52.480;13.422;2023-08-24T07:07:19;11.00;;;4.03;;
3491;SDS011;1760;52.480;13.422;2023-08-24T07:09:45;4.70;;;3.30;;
3491;SDS011;1760;52.480;13.422;2023-08-24T07:12:14;5.03;;;3.50;;
3491;SDS011;1760;52.480;13.422;2023-08-24T07:14:41;4.20;;;3.80;;
3491;SDS011;1760;52.480;13.422;2023-08-24T07:17:07;3.93;;;3.50;;
3491;SDS011;1760;52.480;13.422;2023-08-24T07:19:35;6.67;;;4.20;;
3491;SDS011;1760;52.480;13.422;2023-08-24T07:22:02;5.40;;;3.67;;
3491;SDS011;1760;52.480;13.422;2023-08-24T07:24:29;6.83;;;4.63;;
3491;SDS011;1760;52.480;13.422;2023-08-24T07:26:58;6.40;;;4.40;;
3491;SDS011;1760;52.480;13.422;2023-08-24T07:29:26;5.50;;;3.87;;
3491;SDS011;1760;52.480;13.422;2023-08-24T07:31:53;4.73;;;4.33;;
3491;SDS011;1760;52.480;13.422;2023-08-24T07:34:20;5.07;;;4.37;;
3491;SDS011;1760;52.480;13.422;2023-08-24T07:36:47;4.53;;;3.73;;
3491;SDS011;1760;52.480;13.422;2023-08-24T07:39:14;4.00;;;3.60;;
3491;SDS011;1760;52.480;13.422;2023-08-24T07:41:41;6.27;;;4.47;;
3491;SDS011;1760;52.480;13.422;2023-08-24T07:44:08;4.27;;;3.67;;
3491;SDS011;1760;52.480;13.422;2023-08-24T07:46:38;4.50;;;3.70;;
3491;SDS011;1760;52.480;13.422;2023-08-24T07:49:05;3.60;;;3.30;;
3491;SDS011;1760;52.480;13.422;2023-08-24T07:51:32;5.97;;;3.97;;
3491;SDS011;1760;52.480;13.422;2023-08-24T07:53:59;3.53;;;3.23;;
3491;SDS011;1760;52.480;13.422;2023-08-24T07:56:26;6.90;;;3.50;;
3491;SDS011;1760;52.480;13.422;2023-08-24T07:58:53;4.63;;;3.80;;
3491;SDS011;1760;52.480;13.422;2023-08-24T08:01:20;4.57;;;4.17;;
3491;SDS011;1760;52.480;13.422;2023-08-24T08:03:48;6.07;;;3.73;;
3491;SDS011;1760;52.480;13.422;2023-08-24T08:06:15;5.57;;;3.00;;
3491;SDS011;1760;52.480;13.422;2023-08-24T08:08:42;5.07;;;3.47;;
3491;SDS011;1760;52.480;13.422;2023-08-24T08:11:09;3.43;;;2.67;;
3491;SDS011;1760;52.480;13.422;2023-08-24T08:13:36;6.13;;;3.20;;
3491;SDS011;1760;52.480;13.422;2023-08-24T08:16:06;3.43;;;3.07;;
3491;SDS011;1760;52.480;13.422;2023-08-24T08:18:34;4.70;;;3.33;;
3491;SDS011;1760;52.480;13.422;2023-08-24T08:21:06;4.87;;;3.60;;
3491;SDS011;1760;52.480;13.422;2023-08-24T08:23:35;2.93;;;2.73;;
3491;SDS011;1760;52.480;13.422;2023-08-24T08:26:02;3.23;;;2.93;;
3491;SDS011;1760;52.480;13.422;2023-08-24T08:28:29;4.67;;;3.50;;
3491;SDS011;1760;52.480;13.422;2023-08-24T08:30:58;3.50;;;3.20;;
3491;SDS011;1760;52.480;13.422;2023-08-24T08:33:25;4.30;;;3.53;;
3491;SDS011;1760;52.480;13.422;2023-08-24T08:35:52;3.40;;;3.10;;
3491;SDS011;1760;52.480;13.422;2023-08-24T08:38:23;3.53;;;3.03;;
3491;SDS011;1760;52.480;13.422;2023-08-24T08:40:52;3.67;;;3.30;;
3491;SDS011;1760;52.480;13.422;2023-08-24T08:43:22;3.97;;;3.50;;
3491;SDS011;1760;52.480;13.422;2023-08-24T08:45:49;4.93;;;4.50;;
3491;SDS011;1760;52.480;13.422;2023-08-24T08:48:18;7.10;;;4.63;;
3491;SDS011;1760;52.480;13.422;2023-08-24T08:50:48;3.90;;;3.57;;
3491;SDS011;1760;52.480;13.422;2023-08-24T08:53:15;5.60;;;3.50;;
3491;SDS011;1760;52.480;13.422;2023-08-24T08:55:44;3.67;;;3.07;;
3491;SDS011;1760;52.480;13.422;2023-08-24T08:58:11;3.67;;;3.10;;
3491;SDS011;1760;52.480;13.422;2023-08-24T09:00:39;3.83;;;2.93;;
3491;SDS011;1760;52.480;13.422;2023-08-24T09:03:06;3.97;;;2.90;;
3491;SDS011;1760;52.480;13.422;2023-08-24T09:05:36;5.27;;;4.40;;
3491;SDS011;1760;52.480;13.422;2023-08-24T09:08:04;6.23;;;4.00;;
3491;SDS011;1760;52.480;13.422;2023-08-24T09:10:32;4.30;;;2.70;;
3491;SDS011;1760;52.480;13.422;2023-08-24T09:13:00;2.73;;;2.30;;
3491;SDS011;1760;52.480;13.422;2023-08-24T09:15:27;3.03;;;2.17;;
3491;SDS011;1760;52.480;13.422;2023-08-24T09:18:01;2.60;;;2.40;;
3491;SDS011;1760;52.480;13.422;2023-08-24T09:20:28;6.13;;;2.73;;
3491;SDS011;1760;52.480;13.422;2023-08-24T09:22:56;3.07;;;2.83;;
3491;SDS011;1760;52.480;13.422;2023-08-24T09:25:26;4.60;;;3.40;;
3491;SDS011;1760;52.480;13.422;2023-08-24T09:27:56;9.57;;;7.13;;
3491;SDS011;1760;52.480;13.422;2023-08-24T09:30:29;4.43;;;4.03;;
3491;SDS011;1760;52.480;13.422;2023-08-24T09:33:00;4.57;;;4.20;;
3491;SDS011;1760;52.480;13.422;2023-08-24T09:35:28;16.20;;;7.77;;
3491;SDS011;1760;52.480;13.422;2023-08-24T09:37:55;11.87;;;7.50;;
3491;SDS011;1760;52.480;13.422;2023-08-24T09:40:25;3.93;;;3.30;;
3491;SDS011;1760;52.480;13.422;2023-08-24T09:42:52;13.77;;;7.00;;
3491;SDS011;1760;52.480;13.422;2023-08-24T09:45:19;11.13;;;4.90;;
3491;SDS011;1760;52.480;13.422;2023-08-24T09:47:50;7.33;;;2.70;;
3491;SDS011;1760;52.480;13.422;2023-08-24T09:50:18;4.00;;;2.50;;
3491;SDS011;1760;52.480;13.422;2023-08-24T09:52:46;5.93;;;4.33;;
3491;SDS011;1760;52.480;13.422;2023-08-24T09:55:15;3.87;;;2.40;;
3491;SDS011;1760;52.480;13.422;2023-08-24T09:57:47;12.00;;;3.20;;
3491;SDS011;1760;52.480;13.422;2023-08-24T10:00:17;2.93;;;2.50;;
3491;SDS011;1760;52.480;13.422;2023-08-24T10:02:48;14.23;;;7.30;;
3491;SDS011;1760;52.480;13.422;2023-08-24T10:05:19;6.53;;;3.80;;
3491;SDS011;1760;52.480;13.422;2023-08-24T10:07:48;2.80;;;2.60;;
3491;SDS011;1760;52.480;13.422;2023-08-24T10:10:19;4.57;;;3.17;;
3491;SDS011;1760;52.480;13.422;2023-08-24T10:12:51;5.50;;;2.80;;
3491;SDS011;1760;52.480;13.422;2023-08-24T10:15:23;14.80;;;9.63;;
3491;SDS011;1760;52.480;13.422;2023-08-24T10:17:52;8.57;;;5.93;;
3491;SDS011;1760;52.480;13.422;2023-08-24T10:20:19;3.23;;;2.00;;
3491;SDS011;1760;52.480;13.422;2023-08-24T10:22:47;5.30;;;2.63;;
3491;SDS011;1760;52.480;13.422;2023-08-24T10:25:15;3.50;;;2.20;;
3491;SDS011;1760;52.480;13.422;2023-08-24T10:27:43;3.37;;;2.07;;
3491;SDS011;1760;52.480;13.422;2023-08-24T10:30:13;5.27;;;2.20;;
3491;SDS011;1760;52.480;13.422;2023-08-24T10:32:40;2.40;;;2.20;;
3491;SDS011;1760;52.480;13.422;2023-08-24T10:35:12;2.33;;;2.13;;
3491;SDS011;1760;52.480;13.422;2023-08-24T10:37:40;5.00;;;2.20;;
3491;SDS011;1760;52.480;13.422;2023-08-24T10:40:10;2.13;;;2.03;;
3491;SDS011;1760;52.480;13.422;2023-08-24T10:42:44;3.53;;;2.20;;
3491;SDS011;1760;52.480;13.422;2023-08-24T10:45:12;5.00;;;2.53;;
3491;SDS011;1760;52.480;13.422;2023-08-24T10:47:44;3.30;;;2.53;;
3491;SDS011;1760;52.480;13.422;2023-08-24T10:50:13;2.90;;;2.67;;
3491;SDS011;1760;52.480;13.422;2023-08-24T10:52:43;5.80;;;2.90;;
3491;SDS011;1760;52.480;13.422;2023-08-24T10:55:23;2.90;;;2.57;;
3491;SDS011;1760;52.480;13.422;2023-08-24T10:57:55;4.40;;;2.50;;
3491;SDS011;1760;52.480;13.422;2023-08-24T11:00:25;2.60;;;2.40;;
3491;SDS011;1760;52.480;13.422;2023-08-24T11:02:53;4.37;;;3.10;;
3491;SDS011;1760;52.480;13.422;2023-08-24T11:05:23;7.83;;;3.43;;
3491;SDS011;1760;52.480;13.422;2023-08-24T11:07:53;3.10;;;2.80;;
3491;SDS011;1760;52.480;13.422;2023-08-24T11:10:22;3.47;;;3.17;;
3491;SDS011;1760;52.480;13.422;2023-08-24T11:13:09;4.03;;;3.40;;
3491;SDS011;1760;52.480;13.422;2023-08-24T11:15:38;5.40;;;2.87;;
3491;SDS011;1760;52.480;13.422;2023-08-24T11:18:12;3.97;;;3.10;;
3491;SDS011;1760;52.480;13.422;2023-08-24T11:20:43;4.73;;;4.30;;
3491;SDS011;1760;52.480;13.422;2023-08-24T11:23:10;3.70;;;2.70;;
3491;SDS011;1760;52.480;13.422;2023-08-24T11:25:38;2.93;;;2.73;;
3491;SDS011;1760;52.480;13.422;2023-08-24T11:28:05;5.67;;;3.30;;
3491;SDS011;1760;52.480;13.422;2023-08-24T11:30:33;4.17;;;3.30;;
3491;SDS011;1760;52.480;13.422;2023-08-24T11:33:00;3.63;;;3.33;;
3491;SDS011;1760;52.480;13.422;2023-08-24T11:35:28;3.27;;;3.03;;
3491;SDS011;1760;52.480;13.422;2023-08-24T11:37:56;4.43;;;3.20;;
3491;SDS011;1760;52.480;13.422;2023-08-24T11:40:24;5.20;;;3.20;;
3491;SDS011;1760;52.480;13.422;2023-08-24T11:42:53;5.73;;;3.50;;
3491;SDS011;1760;52.480;13.422;2023-08-24T11:45:21;3.97;;;3.17;;
3491;SDS011;1760;52.480;13.422;2023-08-24T11:47:48;5.40;;;3.50;;
3491;SDS011;1760;52.480;13.422;2023-08-24T11:50:16;5.17;;;3.80;;
3491;SDS011;1760;52.480;13.422;2023-08-24T11:52:43;4.10;;;3.80;;
3491;SDS011;1760;52.480;13.422;2023-08-24T11:55:11;3.00;;;2.80;;
3491;SDS011;1760;52.480;13.422;2023-08-24T11:57:38;6.20;;;4.23;;
3491;SDS011;1760;52.480;13.422;2023-08-24T12:00:05;4.47;;;3.57;;
3491;SDS011;1760;52.480;13.422;2023-08-24T12:02:34;4.87;;;3.47;;
3491;SDS011;1760;52.480;13.422;2023-08-24T12:05:06;6.80;;;3.50;;
3491;SDS011;1760;52.480;13.422;2023-08-24T12:07:33;5.30;;;3.00;;
3491;SDS011;1760;52.480;13.422;2023-08-24T12:10:03;5.37;;;3.90;;
3491;SDS011;1760;52.480;13.422;2023-08-24T12:12:32;7.90;;;5.67;;
3491;SDS011;1760;52.480;13.422;2023-08-24T12:14:59;3.30;;;2.70;;
3491;SDS011;1760;52.480;13.422;2023-08-24T12:17:26;6.07;;;2.83;;
3491;SDS011;1760;52.480;13.422;2023-08-24T12:19:57;3.23;;;2.87;;
3491;SDS011;1760;52.480;13.422;2023-08-24T12:22:25;4.70;;;3.40;;
3491;SDS011;1760;52.480;13.422;2023-08-24T12:24:53;3.43;;;3.13;;
3491;SDS011;1760;52.480;13.422;2023-08-24T12:27:22;4.07;;;3.20;;
3491;SDS011;1760;52.480;13.422;2023-08-24T12:29:59;4.23;;;3.40;;
3491;SDS011;1760;52.480;13.422;2023-08-24T12:32:30;5.67;;;3.30;;
3491;SDS011;1760;52.480;13.422;2023-08-24T12:35:08;3.90;;;3.20;;
3491;SDS011;1760;52.480;13.422;2023-08-24T12:37:35;4.00;;;3.17;;
3491;SDS011;1760;52.480;13.422;2023-08-24T12:40:02;3.90;;;3.30;;
3491;SDS011;1760;52.480;13.422;2023-08-24T12:42:30;3.63;;;3.33;;
3491;SDS011;1760;52.480;13.422;2023-08-24T12:44:59;4.00;;;3.23;;
3491;SDS011;1760;52.480;13.422;2023-08-24T12:47:26;3.47;;;3.17;;
3491;SDS011;1760;52.480;13.422;2023-08-24T12:49:53;3.27;;;2.97;;
3491;SDS011;1760;52.480;13.422;2023-08-24T12:52:23;3.40;;;3.10;;
3491;SDS011;1760;52.480;13.422;2023-08-24T12:54:50;4.87;;;3.47;;
3491;SDS011;1760;52.480;13.422;2023-08-24T12:57:17;2.83;;;2.63;;
3491;SDS011;1760;52.480;13.422;2023-08-24T12:59:44;3.17;;;2.87;;
3491;SDS011;1760;52.480;13.422;2023-08-24T13:02:12;9.70;;;3.30;;
3491;SDS011;1760;52.480;13.422;2023-08-24T13:04:39;6.70;;;3.43;;
3491;SDS011;1760;52.480;13.422;2023-08-24T13:07:06;3.47;;;2.90;;
3491;SDS011;1760;52.480;13.422;2023-08-24T13:09:34;4.07;;;3.17;;
3491;SDS011;1760;52.480;13.422;2023-08-24T13:12:01;4.10;;;3.33;;
3491;SDS011;1760;52.480;13.422;2023-08-24T13:14:28;5.37;;;2.83;;
3491;SDS011;1760;52.480;13.422;2023-08-24T13:16:55;3.37;;;3.00;;
3491;SDS011;1760;52.480;13.422;2023-08-24T13:19:23;3.00;;;2.80;;
3491;SDS011;1760;52.480;13.422;2023-08-24T13:21:53;3.83;;;3.13;;
3491;SDS011;1760;52.480;13.422;2023-08-24T13:24:20;3.07;;;2.70;;
3491;SDS011;1760;52.480;13.422;2023-08-24T13:26:47;17.93;;;8.77;;
3491;SDS011;1760;52.480;13.422;2023-08-24T13:29:14;12.40;;;9.23;;
3491;SDS011;1760;52.480;13.422;2023-08-24T13:31:41;5.57;;;3.53;;
3491;SDS011;1760;52.480;13.422;2023-08-24T13:34:08;4.10;;;3.10;;
3491;SDS011;1760;52.480;13.422;2023-08-24T13:36:36;3.33;;;3.03;;
3491;SDS011;1760;52.480;13.422;2023-08-24T13:39:03;3.00;;;2.80;;
3491;SDS011;1760;52.480;13.422;2023-08-24T13:41:30;3.60;;;3.07;;
3491;SDS011;1760;52.480;13.422;2023-08-24T13:43:57;6.17;;;3.43;;
3491;SDS011;1760;52.480;13.422;2023-08-24T13:46:23;3.00;;;2.70;;
3491;SDS011;1760;52.480;13.422;2023-08-24T13:48:50;4.10;;;2.90;;
3491;SDS011;1760;52.480;13.422;2023-08-24T13:51:17;3.90;;;3.50;;
3491;SDS011;1760;52.480;13.422;2023-08-24T13:53:46;3.03;;;2.73;;
3491;SDS011;1760;52.480;13.422;2023-08-24T13:56:13;4.93;;;2.97;;
3491;SDS011;1760;52.480;13.422;2023-08-24T13:58:40;3.60;;;3.30;;
3491;SDS011;1760;52.480;13.422;2023-08-24T14:01:07;4.03;;;3.63;;
3491;SDS011;1760;52.480;13.422;2023-08-24T14:03:35;5.07;;;3.97;;
3491;SDS011;1760;52.480;13.422;2023-08-24T14:06:04;3.73;;;3.43;;
3491;SDS011;1760;52.480;13.422;2023-08-24T14:08:31;3.77;;;3.30;;
3491;SDS011;1760;52.480;13.422;2023-08-24T14:11:00;5.53;;;3.40;;
3491;SDS011;1760;52.480;13.422;2023-08-24T14:13:27;4.00;;;3.07;;
3491;SDS011;1760;52.480;13.422;2023-08-24T14:15:53;5.47;;;3.63;;
3491;SDS011;1760;52.480;13.422;2023-08-24T14:18:21;4.43;;;3.33;;
3491;SDS011;1760;52.480;13.422;2023-08-24T14:20:48;4.63;;;3.43;;
3491;SDS011;1760;52.480;13.422;2023-08-24T14:23:20;3.10;;;2.80;;
3491;SDS011;1760;52.480;13.422;2023-08-24T14:25:47;5.97;;;3.03;;
3491;SDS011;1760;52.480;13.422;2023-08-24T14:28:19;6.73;;;3.40;;
3491;SDS011;1760;52.480;13.422;2023-08-24T14:30:47;2.83;;;2.63;;
3491;SDS011;1760;52.480;13.422;2023-08-24T14:33:14;3.80;;;3.40;;
3491;SDS011;1760;52.480;13.422;2023-08-24T14:35:43;3.57;;;2.77;;
3491;SDS011;1760;52.480;13.422;2023-08-24T14:38:16;3.00;;;2.63;;
3491;SDS011;1760;52.480;13.422;2023-08-24T14:40:43;3.50;;;3.20;;
3491;SDS011;1760;52.480;13.422;2023-08-24T14:43:10;5.20;;;3.43;;
3491;SDS011;1760;52.480;13.422;2023-08-24T14:45:38;4.73;;;3.17;;
3491;SDS011;1760;52.480;13.422;2023-08-24T14:48:05;2.70;;;2.50;;
3491;SDS011;1760;52.480;13.422;2023-08-24T14:50:32;3.70;;;3.07;;
3491;SDS011;1760;52.480;13.422;2023-08-24T14:52:59;7.13;;;2.80;;
3491;SDS011;1760;52.480;13.422;2023-08-24T14:55:26;5.50;;;3.17;;
3491;SDS011;1760;52.480;13.422;2023-08-24T14:57:53;5.67;;;4.47;;
3491;SDS011;1760;52.480;13.422;2023-08-24T15:00:21;8.77;;;4.70;;
3491;SDS011;1760;52.480;13.422;2023-08-24T15:02:49;4.67;;;3.40;;
3491;SDS011;1760;52.480;13.422;2023-08-24T15:05:16;4.87;;;3.40;;